sensor_id;sensor_type;location;lat;lon;timestamp;pressure;altitude;pressure_sealevel;temperature;humidity
55486;BME280;71262;-25.924;28.194;2023-11-21T00:02:04;85017.00;;;22.40;35.73
55486;BME280;71262;-25.924;28.194;2023-11-21T00:04:29;85017.77;;;22.69;35.73
55486;BME280;71262;-25.924;28.194;2023-11-21T00:06:55;85015.62;;;22.85;35.82
55486;BME280;71262;-25.924;28.194;2023-11-21T00:09:19;85018.48;;;22.22;36.04
55486;BME280;71262;-25.924;28.194;2023-11-21T00:11:45;85022.01;;;22.38;35.90
55486;BME280;71262;-25.924;28.194;2023-11-21T00:14:10;85029.42;;;22.80;36.04
55486;BME280;71262;-25.924;28.194;2023-11-21T00:16:35;85028.09;;;22.67;36.20
55486;BME280;71262;-25.924;28.194;2023-11-21T00:19:00;85028.81;;;22.99;35.83
55486;BME280;71262;-25.924;28.194;2023-11-21T00:21:25;85033.12;;;22.86;36.03
55486;BME280;71262;-25.924;28.194;2023-11-21T00:23:50;85030.04;;;22.75;36.18
55486;BME280;71262;-25.924;28.194;2023-11-21T00:26:15;85038.21;;;22.79;36.13
55486;BME280;71262;-25.924;28.194;2023-11-21T00:28:40;85049.10;;;22.28;36.15
55486;BME280;71262;-25.924;28.194;2023-11-21T00:31:05;85063.69;;;22.63;36.07
55486;BME280;71262;-25.924;28.194;2023-11-21T00:33:30;85084.66;;;22.50;36.20
55486;BME280;71262;-25.924;28.194;2023-11-21T00:35:55;85096.37;;;22.59;36.34
55486;BME280;71262;-25.924;28.194;2023-11-21T00:38:20;85104.86;;;22.51;36.20
55486;BME280;71262;-25.924;28.194;2023-11-21T00:40:45;85106.99;;;22.82;36.09
55486;BME280;71262;-25.924;28.194;2023-11-21T00:43:10;85102.04;;;22.61;36.05
55486;BME280;71262;-25.924;28.194;2023-11-21T00:45:35;85099.11;;;22.27;36.18
55486;BME280;71262;-25.924;28.194;2023-11-21T00:48:00;85096.78;;;22.50;36.16
55486;BME280;71262;-25.924;28.194;2023-11-21T00:50:25;85098.15;;;22.30;36.10
55486;BME280;71262;-25.924;28.194;2023-11-21T00:52:50;85099.33;;;22.67;35.94
55486;BME280;71262;-25.924;28.194;2023-11-21T00:55:16;85116.64;;;22.42;36.19
55486;BME280;71262;-25.924;28.194;2023-11-21T00:57:41;85142.29;;;22.21;36.06
55486;BME280;71262;-25.924;28.194;2023-11-21T01:00:07;85143.96;;;22.78;35.92
55486;BME280;71262;-25.924;28.194;2023-11-21T01:02:31;85148.02;;;22.88;35.68
55486;BME280;71262;-25.924;28.194;2023-11-21T01:04:56;85157.67;;;22.47;35.93
55486;BME280;71262;-25.924;28.194;2023-11-21T01:07:21;85158.16;;;22.74;35.85
55486;BME280;71262;-25.924;28.194;2023-11-21T01:09:46;85158.63;;;22.40;35.92
55486;BME280;71262;-25.924;28.194;2023-11-21T01:12:11;85163.69;;;22.30;35.70
55486;BME280;71262;-25.924;28.194;2023-11-21T01:14:36;85161.54;;;22.49;35.77
55486;BME280;71262;-25.924;28.194;2023-11-21T01:17:02;85158.71;;;22.56;35.67
55486;BME280;71262;-25.924;28.194;2023-11-21T01:19:26;85162.68;;;22.34;35.88
55486;BME280;71262;-25.924;28.194;2023-11-21T01:21:51;85166.47;;;22.12;36.11
55486;BME280;71262;-25.924;28.194;2023-11-21T01:24:16;85161.48;;;22.46;35.64
55486;BME280;71262;-25.924;28.194;2023-11-21T01:26:41;85164.30;;;22.68;35.63
55486;BME280;71262;-25.924;28.194;2023-11-21T01:29:06;85166.25;;;22.53;35.47
55486;BME280;71262;-25.924;28.194;2023-11-21T01:31:32;85166.56;;;22.56;35.67
55486;BME280;71262;-25.924;28.194;2023-11-21T01:33:57;85169.69;;;22.68;35.51
55486;BME280;71262;-25.924;28.194;2023-11-21T01:36:22;85177.67;;;22.65;35.56
55486;BME280;71262;-25.924;28.194;2023-11-21T01:38:47;85173.34;;;22.48;35.66
55486;BME280;71262;-25.924;28.194;2023-11-21T01:41:12;85171.28;;;22.62;35.54
55486;BME280;71262;-25.924;28.194;2023-11-21T01:43:37;85170.25;;;22.64;35.49
55486;BME280;71262;-25.924;28.194;2023-11-21T01:46:02;85173.60;;;22.59;35.51
55486;BME280;71262;-25.924;28.194;2023-11-21T01:48:28;85171.57;;;22.27;35.74
55486;BME280;71262;-25.924;28.194;2023-11-21T01:50:52;85173.77;;;22.34;35.63
55486;BME280;71262;-25.924;28.194;2023-11-21T01:53:18;85169.55;;;22.57;35.65
55486;BME280;71262;-25.924;28.194;2023-11-21T01:55:43;85164.59;;;22.68;35.52
55486;BME280;71262;-25.924;28.194;2023-11-21T01:58:08;85170.05;;;22.41;35.28
55486;BME280;71262;-25.924;28.194;2023-11-21T02:00:33;85174.34;;;22.71;35.47
55486;BME280;71262;-25.924;28.194;2023-11-21T02:02:58;85183.73;;;22.12;35.64
55486;BME280;71262;-25.924;28.194;2023-11-21T02:05:23;85179.34;;;22.51;36.71
55486;BME280;71262;-25.924;28.194;2023-11-21T02:07:48;85179.71;;;22.32;37.21
55486;BME280;71262;-25.924;28.194;2023-11-21T02:10:14;85181.70;;;22.25;35.53
55486;BME280;71262;-25.924;28.194;2023-11-21T02:12:39;85188.88;;;22.47;35.35
55486;BME280;71262;-25.924;28.194;2023-11-21T02:15:05;85192.19;;;22.23;35.59
55486;BME280;71262;-25.924;28.194;2023-11-21T02:17:29;85191.04;;;22.14;35.69
55486;BME280;71262;-25.924;28.194;2023-11-21T02:19:55;85187.00;;;22.48;35.58
55486;BME280;71262;-25.924;28.194;2023-11-21T02:22:20;85191.08;;;22.47;35.53
55486;BME280;71262;-25.924;28.194;2023-11-21T02:24:46;85191.23;;;22.49;35.51
55486;BME280;71262;-25.924;28.194;2023-11-21T02:27:10;85187.69;;;22.41;35.58
55486;BME280;71262;-25.924;28.194;2023-11-21T02:29:35;85187.37;;;22.69;35.50
55486;BME280;71262;-25.924;28.194;2023-11-21T02:32:00;85191.18;;;22.12;35.54
55486;BME280;71262;-25.924;28.194;2023-11-21T02:34:25;85196.38;;;22.42;35.51
55486;BME280;71262;-25.924;28.194;2023-11-21T02:36:50;85204.91;;;22.21;35.81
55486;BME280;71262;-25.924;28.194;2023-11-21T02:39:15;85206.93;;;22.35;35.83
55486;BME280;71262;-25.924;28.194;2023-11-21T02:41:40;85200.24;;;22.13;35.52
55486;BME280;71262;-25.924;28.194;2023-11-21T02:44:06;85203.74;;;22.41;35.49
55486;BME280;71262;-25.924;28.194;2023-11-21T02:46:30;85206.67;;;22.05;35.57
55486;BME280;71262;-25.924;28.194;2023-11-21T02:48:55;85202.92;;;22.62;35.46
55486;BME280;71262;-25.924;28.194;2023-11-21T02:51:21;85201.04;;;22.65;35.38
55486;BME280;71262;-25.924;28.194;2023-11-21T02:53:45;85206.92;;;22.64;35.37
55486;BME280;71262;-25.924;28.194;2023-11-21T02:56:10;85206.35;;;22.24;35.62
55486;BME280;71262;-25.924;28.194;2023-11-21T02:58:36;85201.70;;;22.61;35.38
55486;BME280;71262;-25.924;28.194;2023-11-21T03:01:00;85200.69;;;22.03;35.48
55486;BME280;71262;-25.924;28.194;2023-11-21T03:03:26;85198.33;;;22.49;35.47
55486;BME280;71262;-25.924;28.194;2023-11-21T03:05:51;85198.35;;;22.27;35.44
55486;BME280;71262;-25.924;28.194;2023-11-21T03:08:16;85201.18;;;22.43;35.51
55486;BME280;71262;-25.924;28.194;2023-11-21T03:10:41;85197.88;;;22.33;35.63
55486;BME280;71262;-25.924;28.194;2023-11-21T03:13:06;85191.83;;;22.35;35.56
55486;BME280;71262;-25.924;28.194;2023-11-21T03:15:31;85174.39;;;22.30;35.36
55486;BME280;71262;-25.924;28.194;2023-11-21T03:17:56;85161.87;;;22.41;35.42
55486;BME280;71262;-25.924;28.194;2023-11-21T03:20:21;85143.36;;;22.37;35.22
55486;BME280;71262;-25.924;28.194;2023-11-21T03:22:46;85136.04;;;22.07;35.23
55486;BME280;71262;-25.924;28.194;2023-11-21T03:25:11;85136.64;;;22.53;35.24
55486;BME280;71262;-25.924;28.194;2023-11-21T03:27:36;85138.45;;;22.75;35.26
55486;BME280;71262;-25.924;28.194;2023-11-21T03:30:01;85131.94;;;22.39;35.42
55486;BME280;71262;-25.924;28.194;2023-11-21T03:32:26;85119.64;;;22.37;35.39
55486;BME280;71262;-25.924;28.194;2023-11-21T03:34:56;85105.54;;;22.22;35.64
55486;BME280;71262;-25.924;28.194;2023-11-21T03:37:16;85100.95;;;22.31;35.48
55486;BME280;71262;-25.924;28.194;2023-11-21T03:39:42;85101.28;;;22.02;35.56
55486;BME280;71262;-25.924;28.194;2023-11-21T03:42:07;85103.70;;;22.49;35.30
55486;BME280;71262;-25.924;28.194;2023-11-21T03:44:32;85104.52;;;22.39;35.51
55486;BME280;71262;-25.924;28.194;2023-11-21T03:46:57;85098.53;;;22.33;35.62
55486;BME280;71262;-25.924;28.194;2023-11-21T03:49:22;85092.64;;;22.36;35.62
55486;BME280;71262;-25.924;28.194;2023-11-21T03:51:47;85093.59;;;22.08;35.75
55486;BME280;71262;-25.924;28.194;2023-11-21T03:54:12;85096.68;;;22.23;35.92
55486;BME280;71262;-25.924;28.194;2023-11-21T03:56:37;85098.48;;;22.33;35.77
55486;BME280;71262;-25.924;28.194;2023-11-21T03:59:02;85099.49;;;22.34;35.81
55486;BME280;71262;-25.924;28.194;2023-11-21T04:01:27;85100.23;;;22.41;35.95
55486;BME280;71262;-25.924;28.194;2023-11-21T04:03:52;85103.37;;;22.08;35.83
55486;BME280;71262;-25.924;28.194;2023-11-21T04:06:18;85104.76;;;22.27;35.87
55486;BME280;71262;-25.924;28.194;2023-11-21T04:08:42;85108.34;;;22.27;35.83
55486;BME280;71262;-25.924;28.194;2023-11-21T04:11:07;85108.37;;;22.35;35.75
55486;BME280;71262;-25.924;28.194;2023-11-21T04:13:33;85109.32;;;22.41;35.69
55486;BME280;71262;-25.924;28.194;2023-11-21T04:15:58;85109.42;;;22.35;35.83
55486;BME280;71262;-25.924;28.194;2023-11-21T04:18:23;85109.70;;;22.17;36.04
55486;BME280;71262;-25.924;28.194;2023-11-21T04:20:49;85112.61;;;22.17;36.02
55486;BME280;71262;-25.924;28.194;2023-11-21T04:23:14;85115.20;;;22.24;36.08
55486;BME280;71262;-25.924;28.194;2023-11-21T04:25:40;85117.11;;;22.34;35.96
55486;BME280;71262;-25.924;28.194;2023-11-21T04:28:05;85113.61;;;22.16;35.89
55486;BME280;71262;-25.924;28.194;2023-11-21T04:30:29;85112.28;;;22.35;35.97
55486;BME280;71262;-25.924;28.194;2023-11-21T04:32:55;85109.18;;;22.86;35.90
55486;BME280;71262;-25.924;28.194;2023-11-21T04:35:20;85104.22;;;22.42;35.89
55486;BME280;71262;-25.924;28.194;2023-11-21T04:37:45;85099.43;;;22.27;36.06
55486;BME280;71262;-25.924;28.194;2023-11-21T04:40:11;85104.80;;;22.17;35.98
55486;BME280;71262;-25.924;28.194;2023-11-21T04:42:35;85102.61;;;21.77;37.61
55486;BME280;71262;-25.924;28.194;2023-11-21T04:45:00;85108.21;;;22.11;37.25
55486;BME280;71262;-25.924;28.194;2023-11-21T04:47:25;85112.26;;;22.14;36.50
55486;BME280;71262;-25.924;28.194;2023-11-21T04:49:51;85113.47;;;22.11;36.52
55486;BME280;71262;-25.924;28.194;2023-11-21T04:52:16;85112.02;;;22.21;36.40
55486;BME280;71262;-25.924;28.194;2023-11-21T04:54:41;85112.17;;;22.48;36.62
55486;BME280;71262;-25.924;28.194;2023-11-21T04:57:07;85114.81;;;22.64;36.45
55486;BME280;71262;-25.924;28.194;2023-11-21T04:59:31;85123.58;;;22.56;36.53
55486;BME280;71262;-25.924;28.194;2023-11-21T05:01:56;85129.17;;;22.63;36.44
55486;BME280;71262;-25.924;28.194;2023-11-21T05:04:21;85129.78;;;22.54;36.56
55486;BME280;71262;-25.924;28.194;2023-11-21T05:06:46;85131.94;;;22.37;36.49
55486;BME280;71262;-25.924;28.194;2023-11-21T05:09:11;85127.45;;;22.22;36.64
55486;BME280;71262;-25.924;28.194;2023-11-21T05:11:37;85126.82;;;22.24;36.66
55486;BME280;71262;-25.924;28.194;2023-11-21T05:14:03;85129.83;;;22.33;36.76
55486;BME280;71262;-25.924;28.194;2023-11-21T05:16:28;85130.07;;;21.93;37.01
55486;BME280;71262;-25.924;28.194;2023-11-21T05:18:53;85132.30;;;21.94;37.47
55486;BME280;71262;-25.924;28.194;2023-11-21T05:21:19;85135.31;;;21.93;37.04
55486;BME280;71262;-25.924;28.194;2023-11-21T05:23:44;85129.81;;;22.12;36.21
55486;BME280;71262;-25.924;28.194;2023-11-21T05:26:09;85123.23;;;22.08;35.32
55486;BME280;71262;-25.924;28.194;2023-11-21T05:28:35;85116.35;;;22.29;34.64
55486;BME280;71262;-25.924;28.194;2023-11-21T05:31:00;85119.60;;;22.06;34.08
55486;BME280;71262;-25.924;28.194;2023-11-21T05:33:26;85125.43;;;21.86;33.44
55486;BME280;71262;-25.924;28.194;2023-11-21T05:35:51;85126.11;;;22.25;33.19
55486;BME280;71262;-25.924;28.194;2023-11-21T05:38:16;85117.26;;;22.23;32.86
55486;BME280;71262;-25.924;28.194;2023-11-21T05:40:41;85109.88;;;22.13;32.84
55486;BME280;71262;-25.924;28.194;2023-11-21T05:43:08;85114.39;;;22.02;33.59
55486;BME280;71262;-25.924;28.194;2023-11-21T05:45:31;85120.11;;;21.90;35.68
55486;BME280;71262;-25.924;28.194;2023-11-21T05:47:57;85121.31;;;21.96;37.30
55486;BME280;71262;-25.924;28.194;2023-11-21T05:50:22;85127.94;;;22.38;38.69
55486;BME280;71262;-25.924;28.194;2023-11-21T05:52:48;85131.32;;;22.39;40.01
55486;BME280;71262;-25.924;28.194;2023-11-21T05:55:12;85128.36;;;22.24;40.36
55486;BME280;71262;-25.924;28.194;2023-11-21T05:57:38;85124.75;;;22.10;40.76
55486;BME280;71262;-25.924;28.194;2023-11-21T06:00:04;85128.59;;;22.57;41.62
55486;BME280;71262;-25.924;28.194;2023-11-21T06:02:27;85131.36;;;22.26;42.52
55486;BME280;71262;-25.924;28.194;2023-11-21T06:04:52;85134.92;;;22.19;43.56
55486;BME280;71262;-25.924;28.194;2023-11-21T06:07:17;85136.51;;;22.26;44.41
55486;BME280;71262;-25.924;28.194;2023-11-21T06:09:42;85137.97;;;22.27;43.08
55486;BME280;71262;-25.924;28.194;2023-11-21T06:12:08;85142.01;;;22.27;42.32
55486;BME280;71262;-25.924;28.194;2023-11-21T06:14:32;85144.13;;;22.25;40.72
55486;BME280;71262;-25.924;28.194;2023-11-21T06:16:57;85143.85;;;22.12;39.98
55486;BME280;71262;-25.924;28.194;2023-11-21T06:19:22;85144.27;;;22.74;38.98
55486;BME280;71262;-25.924;28.194;2023-11-21T06:21:48;85140.75;;;22.16;38.17
55486;BME280;71262;-25.924;28.194;2023-11-21T06:24:13;85137.72;;;22.16;37.60
55486;BME280;71262;-25.924;28.194;2023-11-21T06:26:39;85133.87;;;22.35;36.76
55486;BME280;71262;-25.924;28.194;2023-11-21T06:29:04;85129.71;;;22.47;36.40
55486;BME280;71262;-25.924;28.194;2023-11-21T06:31:30;85126.40;;;22.20;35.93
55486;BME280;71262;-25.924;28.194;2023-11-21T06:33:55;85121.66;;;22.00;35.40
55486;BME280;71262;-25.924;28.194;2023-11-21T06:36:20;85117.07;;;22.25;35.27
55486;BME280;71262;-25.924;28.194;2023-11-21T06:38:45;85115.78;;;22.55;34.65
55486;BME280;71262;-25.924;28.194;2023-11-21T06:41:10;85117.30;;;22.22;34.42
55486;BME280;71262;-25.924;28.194;2023-11-21T06:43:35;85116.63;;;22.34;33.97
55486;BME280;71262;-25.924;28.194;2023-11-21T06:46:01;85116.82;;;22.24;33.83
55486;BME280;71262;-25.924;28.194;2023-11-21T06:48:26;85111.72;;;22.28;33.47
55486;BME280;71262;-25.924;28.194;2023-11-21T06:50:51;85109.93;;;22.24;33.32
55486;BME280;71262;-25.924;28.194;2023-11-21T06:53:16;85114.44;;;22.20;33.14
55486;BME280;71262;-25.924;28.194;2023-11-21T06:55:41;85114.26;;;22.36;32.82
55486;BME280;71262;-25.924;28.194;2023-11-21T06:58:06;85116.60;;;22.31;32.61
55486;BME280;71262;-25.924;28.194;2023-11-21T07:00:32;85119.51;;;22.23;32.45
55486;BME280;71262;-25.924;28.194;2023-11-21T07:02:57;85120.39;;;22.27;32.18
55486;BME280;71262;-25.924;28.194;2023-11-21T07:05:22;85119.50;;;22.14;32.32
55486;BME280;71262;-25.924;28.194;2023-11-21T07:07:46;85116.27;;;22.18;31.99
55486;BME280;71262;-25.924;28.194;2023-11-21T07:10:11;85115.76;;;22.67;31.93
55486;BME280;71262;-25.924;28.194;2023-11-21T07:12:36;85114.38;;;22.18;31.79
55486;BME280;71262;-25.924;28.194;2023-11-21T07:15:01;85113.75;;;22.07;31.73
55486;BME280;71262;-25.924;28.194;2023-11-21T07:17:26;85115.05;;;22.48;31.67
55486;BME280;71262;-25.924;28.194;2023-11-21T07:19:51;85113.11;;;21.98;31.57
55486;BME280;71262;-25.924;28.194;2023-11-21T07:22:17;85115.91;;;22.24;31.44
55486;BME280;71262;-25.924;28.194;2023-11-21T07:24:43;85117.67;;;21.98;31.26
55486;BME280;71262;-25.924;28.194;2023-11-21T07:27:07;85121.61;;;21.93;31.20
55486;BME280;71262;-25.924;28.194;2023-11-21T07:29:32;85122.79;;;21.88;31.25
55486;BME280;71262;-25.924;28.194;2023-11-21T07:31:57;85123.87;;;21.90;31.20
55486;BME280;71262;-25.924;28.194;2023-11-21T07:34:22;85126.64;;;21.90;31.42
55486;BME280;71262;-25.924;28.194;2023-11-21T07:36:47;85132.62;;;22.41;31.27
55486;BME280;71262;-25.924;28.194;2023-11-21T07:39:12;85140.12;;;21.84;31.82
55486;BME280;71262;-25.924;28.194;2023-11-21T07:41:37;85142.94;;;22.25;33.60
55486;BME280;71262;-25.924;28.194;2023-11-21T07:44:02;85148.30;;;22.32;34.99
55486;BME280;71262;-25.924;28.194;2023-11-21T07:46:28;85148.84;;;21.45;34.65
55486;BME280;71262;-25.924;28.194;2023-11-21T07:48:53;85145.34;;;20.95;33.17
55486;BME280;71262;-25.924;28.194;2023-11-21T07:51:18;85142.23;;;21.69;32.31
55486;BME280;71262;-25.924;28.194;2023-11-21T07:53:43;85141.65;;;21.89;31.95
55486;BME280;71262;-25.924;28.194;2023-11-21T07:56:10;85144.25;;;22.09;31.41
55486;BME280;71262;-25.924;28.194;2023-11-21T07:58:38;85144.98;;;22.09;31.10
55486;BME280;71262;-25.924;28.194;2023-11-21T08:01:03;85148.64;;;22.21;30.93
55486;BME280;71262;-25.924;28.194;2023-11-21T08:03:27;85156.47;;;22.30;31.28
55486;BME280;71262;-25.924;28.194;2023-11-21T08:05:52;85158.25;;;23.43;31.34
55486;BME280;71262;-25.924;28.194;2023-11-21T08:08:17;85160.24;;;23.32;32.08
55486;BME280;71262;-25.924;28.194;2023-11-21T08:10:42;85165.14;;;23.01;32.96
55486;BME280;71262;-25.924;28.194;2023-11-21T08:13:07;85165.90;;;22.90;33.30
55486;BME280;71262;-25.924;28.194;2023-11-21T08:15:32;85164.52;;;22.74;33.50
55486;BME280;71262;-25.924;28.194;2023-11-21T08:21:09;85175.43;;;22.55;32.46
55486;BME280;71262;-25.924;28.194;2023-11-21T08:23:33;85171.57;;;23.04;32.63
55486;BME280;71262;-25.924;28.194;2023-11-21T08:25:59;85173.76;;;23.16;32.88
55486;BME280;71262;-25.924;28.194;2023-11-21T08:28:24;85173.14;;;22.80;33.11
55486;BME280;71262;-25.924;28.194;2023-11-21T08:30:49;85169.86;;;22.72;33.28
55486;BME280;71262;-25.924;28.194;2023-11-21T08:33:14;85173.12;;;22.92;33.28
55486;BME280;71262;-25.924;28.194;2023-11-21T08:35:39;85181.45;;;22.39;33.28
55486;BME280;71262;-25.924;28.194;2023-11-21T08:38:04;85184.61;;;22.75;33.97
55486;BME280;71262;-25.924;28.194;2023-11-21T08:40:29;85182.36;;;22.61;34.93
55486;BME280;71262;-25.924;28.194;2023-11-21T08:42:54;85178.69;;;23.02;34.13
55486;BME280;71262;-25.924;28.194;2023-11-21T08:45:19;85177.38;;;22.92;33.65
55486;BME280;71262;-25.924;28.194;2023-11-21T08:47:44;85175.39;;;22.93;33.11
55486;BME280;71262;-25.924;28.194;2023-11-21T08:50:10;85172.86;;;22.71;32.80
55486;BME280;71262;-25.924;28.194;2023-11-21T08:52:34;85177.31;;;22.70;32.48
55486;BME280;71262;-25.924;28.194;2023-11-21T08:54:59;85177.36;;;22.66;32.37
55486;BME280;71262;-25.924;28.194;2023-11-21T08:57:25;85174.27;;;22.76;32.69
55486;BME280;71262;-25.924;28.194;2023-11-21T08:59:50;85172.03;;;22.72;32.58
55486;BME280;71262;-25.924;28.194;2023-11-21T09:02:15;85170.86;;;22.53;32.39
55486;BME280;71262;-25.924;28.194;2023-11-21T09:04:40;85171.51;;;22.86;32.06
55486;BME280;71262;-25.924;28.194;2023-11-21T09:07:05;85167.33;;;22.91;31.86
55486;BME280;71262;-25.924;28.194;2023-11-21T09:09:30;85163.20;;;22.78;31.91
55486;BME280;71262;-25.924;28.194;2023-11-21T09:11:55;85158.99;;;22.85;31.78
55486;BME280;71262;-25.924;28.194;2023-11-21T09:14:20;85159.64;;;22.66;31.88
55486;BME280;71262;-25.924;28.194;2023-11-21T09:16:45;85159.45;;;22.68;31.76
55486;BME280;71262;-25.924;28.194;2023-11-21T09:19:10;85151.84;;;22.36;31.68
55486;BME280;71262;-25.924;28.194;2023-11-21T09:21:36;85149.28;;;22.55;31.71
55486;BME280;71262;-25.924;28.194;2023-11-21T09:24:01;85145.51;;;22.55;31.61
55486;BME280;71262;-25.924;28.194;2023-11-21T09:26:26;85148.40;;;22.56;31.45
55486;BME280;71262;-25.924;28.194;2023-11-21T09:28:51;85143.26;;;22.51;31.47
55486;BME280;71262;-25.924;28.194;2023-11-21T09:31:16;85142.99;;;22.45;31.52
55486;BME280;71262;-25.924;28.194;2023-11-21T09:33:41;85141.76;;;22.40;31.76
55486;BME280;71262;-25.924;28.194;2023-11-21T09:36:10;85140.51;;;22.43;31.50
55486;BME280;71262;-25.924;28.194;2023-11-21T09:38:31;85136.04;;;22.43;31.58
55486;BME280;71262;-25.924;28.194;2023-11-21T09:40:56;85135.35;;;22.41;31.52
55486;BME280;71262;-25.924;28.194;2023-11-21T09:43:21;85130.17;;;22.44;31.62
55486;BME280;71262;-25.924;28.194;2023-11-21T09:45:47;85130.04;;;22.42;31.67
55486;BME280;71262;-25.924;28.194;2023-11-21T09:48:11;85126.10;;;22.36;31.63
55486;BME280;71262;-25.924;28.194;2023-11-21T09:50:39;85128.42;;;22.44;31.73
55486;BME280;71262;-25.924;28.194;2023-11-21T09:53:13;85123.42;;;22.41;31.81
55486;BME280;71262;-25.924;28.194;2023-11-21T09:55:27;85123.93;;;22.72;32.07
55486;BME280;71262;-25.924;28.194;2023-11-21T09:57:51;85118.75;;;22.79;32.22
55486;BME280;71262;-25.924;28.194;2023-11-21T10:00:17;85119.42;;;22.46;32.47
55486;BME280;71262;-25.924;28.194;2023-11-21T10:02:42;85124.53;;;22.53;32.52
55486;BME280;71262;-25.924;28.194;2023-11-21T10:05:07;85126.16;;;22.83;33.83
55486;BME280;71262;-25.924;28.194;2023-11-21T10:07:32;85121.44;;;23.08;35.20
55486;BME280;71262;-25.924;28.194;2023-11-21T10:09:57;85111.24;;;22.67;34.46
55486;BME280;71262;-25.924;28.194;2023-11-21T10:12:22;85108.94;;;22.77;33.92
55486;BME280;71262;-25.924;28.194;2023-11-21T10:14:49;85104.37;;;22.92;33.91
55486;BME280;71262;-25.924;28.194;2023-11-21T10:17:13;85100.57;;;22.68;33.82
55486;BME280;71262;-25.924;28.194;2023-11-21T10:19:37;85089.78;;;22.66;33.77
55486;BME280;71262;-25.924;28.194;2023-11-21T10:22:03;85087.34;;;22.57;33.79
55486;BME280;71262;-25.924;28.194;2023-11-21T10:24:27;85080.80;;;22.58;33.51
55486;BME280;71262;-25.924;28.194;2023-11-21T10:26:52;85085.83;;;22.58;33.22
55486;BME280;71262;-25.924;28.194;2023-11-21T10:29:17;85081.47;;;22.58;33.31
55486;BME280;71262;-25.924;28.194;2023-11-21T10:31:42;85075.87;;;22.66;33.18
55486;BME280;71262;-25.924;28.194;2023-11-21T10:34:13;85070.94;;;22.63;33.19
55486;BME280;71262;-25.924;28.194;2023-11-21T10:36:32;85070.10;;;22.59;33.24
55486;BME280;71262;-25.924;28.194;2023-11-21T10:38:57;85065.46;;;22.73;33.06
55486;BME280;71262;-25.924;28.194;2023-11-21T10:41:22;85062.65;;;22.86;33.21
55486;BME280;71262;-25.924;28.194;2023-11-21T10:43:47;85060.67;;;22.88;33.55
55486;BME280;71262;-25.924;28.194;2023-11-21T10:46:13;85061.45;;;22.64;33.73
55486;BME280;71262;-25.924;28.194;2023-11-21T10:48:37;85063.38;;;22.80;33.85
55486;BME280;71262;-25.924;28.194;2023-11-21T10:51:07;85056.90;;;22.72;33.98
55486;BME280;71262;-25.924;28.194;2023-11-21T10:53:29;85055.64;;;22.57;33.68
55486;BME280;71262;-25.924;28.194;2023-11-21T10:56:02;85050.75;;;22.95;33.81
55486;BME280;71262;-25.924;28.194;2023-11-21T10:58:18;85052.22;;;22.94;33.98
55486;BME280;71262;-25.924;28.194;2023-11-21T11:00:43;85049.87;;;22.81;34.46
55486;BME280;71262;-25.924;28.194;2023-11-21T11:03:08;85048.59;;;22.76;34.22
55486;BME280;71262;-25.924;28.194;2023-11-21T11:05:33;85054.30;;;23.05;34.67
55486;BME280;71262;-25.924;28.194;2023-11-21T11:08:02;85048.84;;;22.85;34.59
55486;BME280;71262;-25.924;28.194;2023-11-21T11:10:23;85047.82;;;23.10;34.58
55486;BME280;71262;-25.924;28.194;2023-11-21T11:12:48;85051.23;;;22.69;35.03
55486;BME280;71262;-25.924;28.194;2023-11-21T11:15:14;85049.72;;;23.01;35.19
55486;BME280;71262;-25.924;28.194;2023-11-21T11:17:39;85046.83;;;23.16;34.73
55486;BME280;71262;-25.924;28.194;2023-11-21T11:20:04;85044.40;;;22.97;34.44
55486;BME280;71262;-25.924;28.194;2023-11-21T11:22:35;85034.88;;;22.81;34.73
55486;BME280;71262;-25.924;28.194;2023-11-21T11:25:14;85025.82;;;22.74;34.48
55486;BME280;71262;-25.924;28.194;2023-11-21T11:27:25;85026.94;;;22.98;34.96
55486;BME280;71262;-25.924;28.194;2023-11-21T11:29:50;85018.90;;;23.16;35.26
55486;BME280;71262;-25.924;28.194;2023-11-21T11:32:16;85019.42;;;22.81;35.70
55486;BME280;71262;-25.924;28.194;2023-11-21T11:34:36;85014.78;;;23.17;35.89
55486;BME280;71262;-25.924;28.194;2023-11-21T11:37:03;85016.62;;;23.08;36.08
55486;BME280;71262;-25.924;28.194;2023-11-21T11:39:27;85021.57;;;23.16;35.47
55486;BME280;71262;-25.924;28.194;2023-11-21T11:41:49;85019.62;;;23.06;35.11
55486;BME280;71262;-25.924;28.194;2023-11-21T11:46:43;85009.79;;;23.01;35.20
55486;BME280;71262;-25.924;28.194;2023-11-21T11:49:04;85012.97;;;22.98;35.01
55486;BME280;71262;-25.924;28.194;2023-11-21T11:51:29;85014.91;;;23.25;35.27
55486;BME280;71262;-25.924;28.194;2023-11-21T11:53:54;85009.93;;;23.19;35.79
55486;BME280;71262;-25.924;28.194;2023-11-21T11:56:24;85006.55;;;23.19;36.03
55486;BME280;71262;-25.924;28.194;2023-11-21T11:58:44;85000.19;;;23.30;36.16
55486;BME280;71262;-25.924;28.194;2023-11-21T12:01:09;84992.23;;;23.13;35.72
55486;BME280;71262;-25.924;28.194;2023-11-21T12:03:34;84988.01;;;22.96;35.34
55486;BME280;71262;-25.924;28.194;2023-11-21T12:06:00;84989.07;;;23.29;35.33
55486;BME280;71262;-25.924;28.194;2023-11-21T12:08:24;84985.07;;;22.89;35.28
55486;BME280;71262;-25.924;28.194;2023-11-21T12:10:49;84985.81;;;23.22;35.60
55486;BME280;71262;-25.924;28.194;2023-11-21T12:13:14;84980.58;;;23.01;35.36
55486;BME280;71262;-25.924;28.194;2023-11-21T12:15:40;84978.34;;;23.36;35.78
55486;BME280;71262;-25.924;28.194;2023-11-21T12:18:05;84973.92;;;23.11;35.37
55486;BME280;71262;-25.924;28.194;2023-11-21T12:20:30;84964.16;;;23.20;35.22
55486;BME280;71262;-25.924;28.194;2023-11-21T12:22:55;84966.39;;;22.90;35.14
55486;BME280;71262;-25.924;28.194;2023-11-21T12:25:21;84963.83;;;23.27;35.56
55486;BME280;71262;-25.924;28.194;2023-11-21T12:27:46;84962.60;;;23.29;35.97
55486;BME280;71262;-25.924;28.194;2023-11-21T12:30:11;84957.15;;;23.16;36.48
55486;BME280;71262;-25.924;28.194;2023-11-21T12:32:35;84953.71;;;23.22;36.70
55486;BME280;71262;-25.924;28.194;2023-11-21T12:35:00;84946.12;;;23.27;36.96